sensor_id;sensor_type;location;lat;lon;timestamp;pressure;altitude;pressure_sealevel;temperature;humidity
48530;BME280;34927;37.302;-121.982;2023-02-16T00:00:47;101614.0;;;23.64;23.80
48530;BME280;34927;37.302;-121.982;2023-02-16T00:01:53;101617.0;;;23.68;23.84
48530;BME280;34927;37.302;-121.982;2023-02-16T00:02:57;101613.0;;;23.70;23.74
48530;BME280;34927;37.302;-121.982;2023-02-16T00:04:03;101614.0;;;23.72;23.72
48530;BME280;34927;37.302;-121.982;2023-02-16T00:05:24;101611.0;;;23.70;23.72
48530;BME280;34927;37.302;-121.982;2023-02-16T00:06:28;101610.0;;;23.66;23.87
48530;BME280;34927;37.302;-121.982;2023-02-16T00:07:31;101606.0;;;23.67;23.88
48530;BME280;34927;37.302;-121.982;2023-02-16T00:08:38;101604.0;;;23.61;23.95
48530;BME280;34927;37.302;-121.982;2023-02-16T00:09:41;101605.0;;;23.57;24.01
48530;BME280;34927;37.302;-121.982;2023-02-16T00:10:46;101601.0;;;23.48;24.09
48530;BME280;34927;37.302;-121.982;2023-02-16T00:11:52;101602.0;;;23.41;24.18
48530;BME280;34927;37.302;-121.982;2023-02-16T00:12:57;101605.0;;;23.39;24.27
48530;BME280;34927;37.302;-121.982;2023-02-16T00:14:02;101603.0;;;23.42;24.21
48530;BME280;34927;37.302;-121.982;2023-02-16T00:15:15;101605.0;;;23.52;24.13
48530;BME280;34927;37.302;-121.982;2023-02-16T00:16:23;101606.0;;;23.54;24.07
48530;BME280;34927;37.302;-121.982;2023-02-16T00:17:27;101608.0;;;23.64;23.96
48530;BME280;34927;37.302;-121.982;2023-02-16T00:18:31;101608.0;;;23.76;23.86
48530;BME280;34927;37.302;-121.982;2023-02-16T00:19:38;101608.0;;;23.75;23.83
48530;BME280;34927;37.302;-121.982;2023-02-16T00:20:43;101610.0;;;23.81;23.82
48530;BME280;34927;37.302;-121.982;2023-02-16T00:21:47;101609.0;;;23.82;23.79
48530;BME280;34927;37.302;-121.982;2023-02-16T00:22:53;101610.0;;;23.84;23.71
48530;BME280;34927;37.302;-121.982;2023-02-16T00:23:56;101610.0;;;23.91;23.70
48530;BME280;34927;37.302;-121.982;2023-02-16T00:25:02;101610.0;;;23.89;23.73
48530;BME280;34927;37.302;-121.982;2023-02-16T00:26:14;101611.0;;;23.92;23.62
48530;BME280;34927;37.302;-121.982;2023-02-16T00:27:19;101610.0;;;23.92;23.57
48530;BME280;34927;37.302;-121.982;2023-02-16T00:28:21;101612.0;;;23.96;23.64
48530;BME280;34927;37.302;-121.982;2023-02-16T00:29:28;101615.0;;;23.97;23.60
48530;BME280;34927;37.302;-121.982;2023-02-16T00:30:31;101614.0;;;23.94;23.70
48530;BME280;34927;37.302;-121.982;2023-02-16T00:31:37;101617.0;;;23.91;23.68
48530;BME280;34927;37.302;-121.982;2023-02-16T00:32:43;101618.0;;;23.87;23.88
48530;BME280;34927;37.302;-121.982;2023-02-16T00:33:47;101616.0;;;23.90;23.85
48530;BME280;34927;37.302;-121.982;2023-02-16T00:34:51;101613.0;;;23.80;23.92
48530;BME280;34927;37.302;-121.982;2023-02-16T00:35:58;101614.0;;;23.76;24.02
48530;BME280;34927;37.302;-121.982;2023-02-16T00:37:03;101612.0;;;23.77;23.97
48530;BME280;34927;37.302;-121.982;2023-02-16T00:38:07;101612.0;;;23.70;24.10
48530;BME280;34927;37.302;-121.982;2023-02-16T00:39:12;101614.0;;;23.75;24.09
48530;BME280;34927;37.302;-121.982;2023-02-16T00:40:17;101616.0;;;23.72;24.11
48530;BME280;34927;37.302;-121.982;2023-02-16T00:41:23;101618.0;;;23.83;24.06
48530;BME280;34927;37.302;-121.982;2023-02-16T00:42:32;101619.0;;;23.83;24.00
48530;BME280;34927;37.302;-121.982;2023-02-16T00:43:36;101626.0;;;23.89;23.93
48530;BME280;34927;37.302;-121.982;2023-02-16T00:44:43;101628.0;;;23.81;23.98
48530;BME280;34927;37.302;-121.982;2023-02-16T00:45:52;101628.0;;;23.88;23.94
48530;BME280;34927;37.302;-121.982;2023-02-16T00:47:13;101629.0;;;23.94;23.83
48530;BME280;34927;37.302;-121.982;2023-02-16T00:48:22;101631.0;;;23.83;23.92
48530;BME280;34927;37.302;-121.982;2023-02-16T00:49:26;101630.0;;;23.75;24.03
48530;BME280;34927;37.302;-121.982;2023-02-16T00:50:33;101631.0;;;23.73;24.08
48530;BME280;34927;37.302;-121.982;2023-02-16T00:51:37;101631.0;;;23.74;24.08
48530;BME280;34927;37.302;-121.982;2023-02-16T00:52:43;101631.0;;;23.64;24.19
48530;BME280;34927;37.302;-121.982;2023-02-16T00:53:47;101631.0;;;23.54;24.26
48530;BME280;34927;37.302;-121.982;2023-02-16T00:54:51;101631.0;;;23.42;24.38
48530;BME280;34927;37.302;-121.982;2023-02-16T00:55:57;101631.0;;;23.39;24.47
48530;BME280;34927;37.302;-121.982;2023-02-16T00:57:01;101630.0;;;23.36;24.46
48530;BME280;34927;37.302;-121.982;2023-02-16T00:58:13;101634.0;;;23.34;24.49
48530;BME280;34927;37.302;-121.982;2023-02-16T00:59:22;101637.0;;;23.37;24.45
48530;BME280;34927;37.302;-121.982;2023-02-16T01:00:29;101637.0;;;23.35;24.44
48530;BME280;34927;37.302;-121.982;2023-02-16T01:01:37;101640.0;;;23.31;24.49
48530;BME280;34927;37.302;-121.982;2023-02-16T01:02:43;101642.0;;;23.32;24.49
48530;BME280;34927;37.302;-121.982;2023-02-16T01:03:47;101643.0;;;23.35;24.47
48530;BME280;34927;37.302;-121.982;2023-02-16T01:04:52;101641.0;;;23.35;24.44
48530;BME280;34927;37.302;-121.982;2023-02-16T01:05:57;101642.0;;;23.35;24.43
48530;BME280;34927;37.302;-121.982;2023-02-16T01:07:05;101642.0;;;23.37;24.45
48530;BME280;34927;37.302;-121.982;2023-02-16T01:08:14;101642.0;;;23.36;24.47
48530;BME280;34927;37.302;-121.982;2023-02-16T01:09:22;101644.0;;;23.32;24.50
48530;BME280;34927;37.302;-121.982;2023-02-16T01:10:27;101644.0;;;23.30;24.55
48530;BME280;34927;37.302;-121.982;2023-02-16T01:11:33;101645.0;;;23.25;24.63
48530;BME280;34927;37.302;-121.982;2023-02-16T01:12:37;101645.0;;;23.20;24.70
48530;BME280;34927;37.302;-121.982;2023-02-16T01:13:45;101647.0;;;23.20;24.66
48530;BME280;34927;37.302;-121.982;2023-02-16T01:14:54;101647.0;;;23.21;24.61
48530;BME280;34927;37.302;-121.982;2023-02-16T01:15:57;101651.0;;;23.27;24.60
48530;BME280;34927;37.302;-121.982;2023-02-16T01:17:02;101653.0;;;23.28;24.61
48530;BME280;34927;37.302;-121.982;2023-02-16T01:18:09;101654.0;;;23.25;24.61
48530;BME280;34927;37.302;-121.982;2023-02-16T01:19:12;101654.0;;;23.25;24.63
48530;BME280;34927;37.302;-121.982;2023-02-16T01:20:21;101655.0;;;23.22;24.66
48530;BME280;34927;37.302;-121.982;2023-02-16T01:21:27;101655.0;;;23.18;24.73
48530;BME280;34927;37.302;-121.982;2023-02-16T01:22:33;101657.0;;;23.12;24.76
48530;BME280;34927;37.302;-121.982;2023-02-16T01:23:39;101656.0;;;23.13;24.77
48530;BME280;34927;37.302;-121.982;2023-02-16T01:24:42;101654.0;;;23.10;24.81
48530;BME280;34927;37.302;-121.982;2023-02-16T01:25:46;101655.0;;;23.05;24.87
48530;BME280;34927;37.302;-121.982;2023-02-16T01:26:51;101656.0;;;22.99;24.92
48530;BME280;34927;37.302;-121.982;2023-02-16T01:27:58;101657.0;;;23.03;24.94
48530;BME280;34927;37.302;-121.982;2023-02-16T01:29:02;101658.0;;;22.95;25.02
48530;BME280;34927;37.302;-121.982;2023-02-16T01:30:12;101656.0;;;22.96;24.98
48530;BME280;34927;37.302;-121.982;2023-02-16T01:31:16;101660.0;;;22.91;25.08
48530;BME280;34927;37.302;-121.982;2023-02-16T01:32:22;101660.0;;;22.90;25.07
48530;BME280;34927;37.302;-121.982;2023-02-16T01:33:27;101661.0;;;22.94;25.00
48530;BME280;34927;37.302;-121.982;2023-02-16T01:34:33;101663.0;;;22.91;25.02
48530;BME280;34927;37.302;-121.982;2023-02-16T01:35:42;101664.0;;;22.88;25.04
48530;BME280;34927;37.302;-121.982;2023-02-16T01:36:48;101663.0;;;22.88;25.03
48530;BME280;34927;37.302;-121.982;2023-02-16T01:37:53;101666.0;;;22.83;24.88
48530;BME280;34927;37.302;-121.982;2023-02-16T01:38:57;101666.0;;;22.85;24.95
48530;BME280;34927;37.302;-121.982;2023-02-16T01:40:02;101664.0;;;23.01;24.76
48530;BME280;34927;37.302;-121.982;2023-02-16T01:41:16;101663.0;;;23.24;24.52
48530;BME280;34927;37.302;-121.982;2023-02-16T01:42:30;101663.0;;;23.56;24.21
48530;BME280;34927;37.302;-121.982;2023-02-16T01:43:43;101661.0;;;23.86;23.91
48530;BME280;34927;37.302;-121.982;2023-02-16T01:44:50;101662.0;;;24.09;23.65
48530;BME280;34927;37.302;-121.982;2023-02-16T01:46:04;101659.0;;;24.31;23.35
48530;BME280;34927;37.302;-121.982;2023-02-16T01:47:23;101661.0;;;24.58;23.11
48530;BME280;34927;37.302;-121.982;2023-02-16T01:48:32;101661.0;;;24.80;22.86
48530;BME280;34927;37.302;-121.982;2023-02-16T01:49:38;101661.0;;;24.93;22.69
48530;BME280;34927;37.302;-121.982;2023-02-16T01:50:47;101664.0;;;24.98;22.65
48530;BME280;34927;37.302;-121.982;2023-02-16T01:51:57;101663.0;;;24.89;22.81
48530;BME280;34927;37.302;-121.982;2023-02-16T01:53:13;101661.0;;;24.83;22.86
48530;BME280;34927;37.302;-121.982;2023-02-16T01:54:31;101661.0;;;24.70;23.03
48530;BME280;34927;37.302;-121.982;2023-02-16T01:55:41;101660.0;;;24.40;23.31
48530;BME280;34927;37.302;-121.982;2023-02-16T01:56:51;101658.0;;;24.21;23.56
48530;BME280;34927;37.302;-121.982;2023-02-16T01:58:00;101661.0;;;24.00;23.78
48530;BME280;34927;37.302;-121.982;2023-02-16T01:59:13;101661.0;;;24.00;23.83
48530;BME280;34927;37.302;-121.982;2023-02-16T02:00:28;101664.0;;;24.09;23.73
48530;BME280;34927;37.302;-121.982;2023-02-16T02:01:41;101663.0;;;24.35;23.51
48530;BME280;34927;37.302;-121.982;2023-02-16T02:02:50;101666.0;;;24.58;23.22
48530;BME280;34927;37.302;-121.982;2023-02-16T02:03:57;101665.0;;;24.80;22.98
48530;BME280;34927;37.302;-121.982;2023-02-16T02:05:10;101663.0;;;25.03;22.76
48530;BME280;34927;37.302;-121.982;2023-02-16T02:06:18;101665.0;;;25.19;22.58
48530;BME280;34927;37.302;-121.982;2023-02-16T02:07:26;101666.0;;;25.33;22.38
48530;BME280;34927;37.302;-121.982;2023-02-16T02:08:37;101667.0;;;25.31;22.39
48530;BME280;34927;37.302;-121.982;2023-02-16T02:09:46;101664.0;;;25.19;22.54
48530;BME280;34927;37.302;-121.982;2023-02-16T02:11:03;101667.0;;;25.19;22.63
48530;BME280;34927;37.302;-121.982;2023-02-16T02:12:16;101667.0;;;24.93;22.92
48530;BME280;34927;37.302;-121.982;2023-02-16T02:13:31;101671.0;;;24.70;23.14
48530;BME280;34927;37.302;-121.982;2023-02-16T02:14:39;101676.0;;;24.49;23.33
48530;BME280;34927;37.302;-121.982;2023-02-16T02:15:43;101679.0;;;24.36;23.51
48530;BME280;34927;37.302;-121.982;2023-02-16T02:16:55;101682.0;;;24.23;23.67
48530;BME280;34927;37.302;-121.982;2023-02-16T02:18:03;101685.0;;;24.31;23.63
48530;BME280;34927;37.302;-121.982;2023-02-16T02:19:07;101682.0;;;24.44;23.49
48530;BME280;34927;37.302;-121.982;2023-02-16T02:20:18;101683.0;;;24.66;23.27
48530;BME280;34927;37.302;-121.982;2023-02-16T02:21:46;101684.0;;;24.90;23.03
48530;BME280;34927;37.302;-121.982;2023-02-16T02:23:19;101682.0;;;25.18;22.72
48530;BME280;34927;37.302;-121.982;2023-02-16T02:27:15;101686.0;;;25.31;22.54
48530;BME280;34927;37.302;-121.982;2023-02-16T02:28:26;101688.0;;;25.19;22.78
48530;BME280;34927;37.302;-121.982;2023-02-16T02:29:58;101685.0;;;25.07;22.90
48530;BME280;34927;37.302;-121.982;2023-02-16T02:31:11;101687.0;;;24.89;23.03
48530;BME280;34927;37.302;-121.982;2023-02-16T02:32:31;101687.0;;;24.66;23.26
48530;BME280;34927;37.302;-121.982;2023-02-16T02:33:47;101688.0;;;24.60;23.39
48530;BME280;34927;37.302;-121.982;2023-02-16T02:35:06;101689.0;;;24.38;23.54
48530;BME280;34927;37.302;-121.982;2023-02-16T02:36:23;101689.0;;;24.34;23.59
48530;BME280;34927;37.302;-121.982;2023-02-16T02:37:43;101696.0;;;24.27;23.70
48530;BME280;34927;37.302;-121.982;2023-02-16T02:39:02;101698.0;;;24.19;23.87
48530;BME280;34927;37.302;-121.982;2023-02-16T02:40:15;101698.0;;;24.28;23.75
48530;BME280;34927;37.302;-121.982;2023-02-16T02:41:26;101695.0;;;24.51;23.56
48530;BME280;34927;37.302;-121.982;2023-02-16T02:42:35;101695.0;;;24.75;23.26
48530;BME280;34927;37.302;-121.982;2023-02-16T02:43:45;101697.0;;;25.00;23.00
48530;BME280;34927;37.302;-121.982;2023-02-16T02:44:55;101694.0;;;25.13;22.89
48530;BME280;34927;37.302;-121.982;2023-02-16T02:46:06;101696.0;;;25.07;22.80
48530;BME280;34927;37.302;-121.982;2023-02-16T02:47:12;101697.0;;;24.99;22.82
48530;BME280;34927;37.302;-121.982;2023-02-16T02:48:17;101698.0;;;24.91;22.97
48530;BME280;34927;37.302;-121.982;2023-02-16T02:49:22;101700.0;;;24.74;23.09
48530;BME280;34927;37.302;-121.982;2023-02-16T02:50:38;101700.0;;;24.60;23.46
48530;BME280;34927;37.302;-121.982;2023-02-16T02:51:42;101704.0;;;24.48;23.48
48530;BME280;34927;37.302;-121.982;2023-02-16T02:52:48;101705.0;;;24.31;23.75
48530;BME280;34927;37.302;-121.982;2023-02-16T02:53:55;101703.0;;;24.18;23.82
48530;BME280;34927;37.302;-121.982;2023-02-16T02:55:01;101700.0;;;24.00;23.88
48530;BME280;34927;37.302;-121.982;2023-02-16T02:56:09;101698.0;;;23.95;24.13
48530;BME280;34927;37.302;-121.982;2023-02-16T02:57:20;101696.0;;;23.89;24.24
48530;BME280;34927;37.302;-121.982;2023-02-16T02:58:29;101695.0;;;23.94;24.17
48530;BME280;34927;37.302;-121.982;2023-02-16T02:59:46;101695.0;;;24.09;24.03
48530;BME280;34927;37.302;-121.982;2023-02-16T03:00:52;101697.0;;;24.29;23.87
48530;BME280;34927;37.302;-121.982;2023-02-16T03:01:59;101693.0;;;24.58;23.64
48530;BME280;34927;37.302;-121.982;2023-02-16T03:03:05;101697.0;;;24.79;23.49
48530;BME280;34927;37.302;-121.982;2023-02-16T03:04:14;101699.0;;;25.00;23.31
48530;BME280;34927;37.302;-121.982;2023-02-16T03:05:23;101698.0;;;25.00;23.34
48530;BME280;34927;37.302;-121.982;2023-02-16T03:06:35;101699.0;;;24.97;23.35
48530;BME280;34927;37.302;-121.982;2023-02-16T03:07:42;101699.0;;;24.77;23.58
48530;BME280;34927;37.302;-121.982;2023-02-16T03:08:49;101698.0;;;24.65;23.71
48530;BME280;34927;37.302;-121.982;2023-02-16T03:09:56;101700.0;;;24.41;24.03
48530;BME280;34927;37.302;-121.982;2023-02-16T03:11:06;101700.0;;;24.24;24.01
48530;BME280;34927;37.302;-121.982;2023-02-16T03:12:12;101701.0;;;24.21;23.92
48530;BME280;34927;37.302;-121.982;2023-02-16T03:13:20;101699.0;;;24.04;23.97
48530;BME280;34927;37.302;-121.982;2023-02-16T03:14:30;101701.0;;;23.87;24.05
48530;BME280;34927;37.302;-121.982;2023-02-16T03:15:37;101704.0;;;23.80;24.11
48530;BME280;34927;37.302;-121.982;2023-02-16T03:16:45;101701.0;;;23.74;24.29
48530;BME280;34927;37.302;-121.982;2023-02-16T03:17:54;101703.0;;;23.84;24.53
48530;BME280;34927;37.302;-121.982;2023-02-16T03:19:02;101705.0;;;24.04;24.56
48530;BME280;34927;37.302;-121.982;2023-02-16T03:20:11;101706.0;;;24.30;24.32
48530;BME280;34927;37.302;-121.982;2023-02-16T03:21:18;101703.0;;;24.51;24.10
48530;BME280;34927;37.302;-121.982;2023-02-16T03:22:22;101704.0;;;24.74;23.85
48530;BME280;34927;37.302;-121.982;2023-02-16T03:23:27;101706.0;;;24.92;23.50
48530;BME280;34927;37.302;-121.982;2023-02-16T03:24:32;101704.0;;;24.87;23.34
48530;BME280;34927;37.302;-121.982;2023-02-16T03:25:38;101706.0;;;24.84;23.41
48530;BME280;34927;37.302;-121.982;2023-02-16T03:26:42;101704.0;;;24.75;23.51
48530;BME280;34927;37.302;-121.982;2023-02-16T03:27:47;101704.0;;;24.64;23.63
48530;BME280;34927;37.302;-121.982;2023-02-16T03:28:52;101703.0;;;24.45;23.86
48530;BME280;34927;37.302;-121.982;2023-02-16T03:29:57;101703.0;;;24.29;23.99
48530;BME280;34927;37.302;-121.982;2023-02-16T03:31:03;101704.0;;;24.12;24.05
48530;BME280;34927;37.302;-121.982;2023-02-16T03:32:07;101705.0;;;23.98;24.20
48530;BME280;34927;37.302;-121.982;2023-02-16T03:33:12;101708.0;;;23.87;24.22
48530;BME280;34927;37.302;-121.982;2023-02-16T03:34:18;101712.0;;;23.82;24.23
48530;BME280;34927;37.302;-121.982;2023-02-16T03:35:22;101710.0;;;23.79;24.10
48530;BME280;34927;37.302;-121.982;2023-02-16T03:36:31;101709.0;;;23.83;24.31
48530;BME280;34927;37.302;-121.982;2023-02-16T03:37:37;101707.0;;;23.98;24.27
48530;BME280;34927;37.302;-121.982;2023-02-16T03:38:42;101710.0;;;24.20;24.09
48530;BME280;34927;37.302;-121.982;2023-02-16T03:39:48;101709.0;;;24.46;23.81
48530;BME280;34927;37.302;-121.982;2023-02-16T03:40:52;101709.0;;;24.63;23.57
48530;BME280;34927;37.302;-121.982;2023-02-16T03:41:57;101713.0;;;24.84;23.44
48530;BME280;34927;37.302;-121.982;2023-02-16T03:43:05;101714.0;;;24.90;23.32
48530;BME280;34927;37.302;-121.982;2023-02-16T03:44:12;101717.0;;;24.82;23.43
48530;BME280;34927;37.302;-121.982;2023-02-16T03:45:17;101714.0;;;24.68;23.62
48530;BME280;34927;37.302;-121.982;2023-02-16T03:46:22;101721.0;;;24.54;23.91
48530;BME280;34927;37.302;-121.982;2023-02-16T03:47:27;101721.0;;;24.39;24.02
48530;BME280;34927;37.302;-121.982;2023-02-16T03:48:31;101720.0;;;24.26;24.16
48530;BME280;34927;37.302;-121.982;2023-02-16T03:49:36;101722.0;;;24.19;24.18
48530;BME280;34927;37.302;-121.982;2023-02-16T03:50:42;101723.0;;;23.90;24.47
48530;BME280;34927;37.302;-121.982;2023-02-16T03:51:47;101723.0;;;23.88;24.34
48530;BME280;34927;37.302;-121.982;2023-02-16T03:52:51;101722.0;;;23.61;24.62
48530;BME280;34927;37.302;-121.982;2023-02-16T03:53:57;101721.0;;;23.36;25.04
48530;BME280;34927;37.302;-121.982;2023-02-16T03:55:01;101725.0;;;23.43;24.81
48530;BME280;34927;37.302;-121.982;2023-02-16T03:56:07;101725.0;;;23.34;24.93
48530;BME280;34927;37.302;-121.982;2023-02-16T03:57:11;101727.0;;;23.04;25.36
48530;BME280;34927;37.302;-121.982;2023-02-16T03:58:18;101730.0;;;22.95;25.49
48530;BME280;34927;37.302;-121.982;2023-02-16T03:59:22;101731.0;;;23.28;25.15
48530;BME280;34927;37.302;-121.982;2023-02-16T04:00:27;101734.0;;;23.55;24.94
48530;BME280;34927;37.302;-121.982;2023-02-16T04:01:32;101736.0;;;23.85;24.69
48530;BME280;34927;37.302;-121.982;2023-02-16T04:02:37;101734.0;;;24.06;24.47
48530;BME280;34927;37.302;-121.982;2023-02-16T04:03:41;101734.0;;;24.32;24.15
48530;BME280;34927;37.302;-121.982;2023-02-16T04:04:47;101733.0;;;24.54;23.87
48530;BME280;34927;37.302;-121.982;2023-02-16T04:05:51;101734.0;;;24.54;23.81
48530;BME280;34927;37.302;-121.982;2023-02-16T04:06:56;101733.0;;;24.42;23.85
48530;BME280;34927;37.302;-121.982;2023-02-16T04:08:02;101732.0;;;24.29;24.09
48530;BME280;34927;37.302;-121.982;2023-02-16T04:09:07;101736.0;;;23.93;24.64
48530;BME280;34927;37.302;-121.982;2023-02-16T04:10:12;101735.0;;;23.82;24.77
48530;BME280;34927;37.302;-121.982;2023-02-16T04:11:17;101734.0;;;23.61;25.00
48530;BME280;34927;37.302;-121.982;2023-02-16T04:12:21;101734.0;;;23.58;24.94
48530;BME280;34927;37.302;-121.982;2023-02-16T04:13:27;101734.0;;;23.54;25.01
48530;BME280;34927;37.302;-121.982;2023-02-16T04:14:32;101733.0;;;23.27;25.28
48530;BME280;34927;37.302;-121.982;2023-02-16T04:15:37;101733.0;;;23.06;25.57
48530;BME280;34927;37.302;-121.982;2023-02-16T04:16:42;101732.0;;;23.16;25.22
48530;BME280;34927;37.302;-121.982;2023-02-16T04:17:47;101732.0;;;23.09;25.44
48530;BME280;34927;37.302;-121.982;2023-02-16T04:18:52;101734.0;;;23.11;25.26
48530;BME280;34927;37.302;-121.982;2023-02-16T04:19:57;101731.0;;;23.24;25.13
48530;BME280;34927;37.302;-121.982;2023-02-16T04:21:01;101730.0;;;23.34;25.10
48530;BME280;34927;37.302;-121.982;2023-02-16T04:22:07;101734.0;;;23.58;24.86
48530;BME280;34927;37.302;-121.982;2023-02-16T04:23:12;101734.0;;;23.82;24.58
48530;BME280;34927;37.302;-121.982;2023-02-16T04:24:17;101737.0;;;24.09;24.27
48530;BME280;34927;37.302;-121.982;2023-02-16T04:25:22;101740.0;;;24.33;24.01
48530;BME280;34927;37.302;-121.982;2023-02-16T04:26:26;101745.0;;;24.51;23.76
48530;BME280;34927;37.302;-121.982;2023-02-16T04:27:32;101747.0;;;24.45;23.75
48530;BME280;34927;37.302;-121.982;2023-02-16T04:28:36;101750.0;;;24.30;23.91
48530;BME280;34927;37.302;-121.982;2023-02-16T04:29:42;101752.0;;;24.20;24.07
48530;BME280;34927;37.302;-121.982;2023-02-16T04:30:46;101756.0;;;23.92;24.39
48530;BME280;34927;37.302;-121.982;2023-02-16T04:31:51;101757.0;;;23.87;24.48
48530;BME280;34927;37.302;-121.982;2023-02-16T04:32:57;101758.0;;;23.75;24.59
48530;BME280;34927;37.302;-121.982;2023-02-16T04:34:02;101758.0;;;23.63;24.68
48530;BME280;34927;37.302;-121.982;2023-02-16T04:35:07;101761.0;;;23.50;24.83
48530;BME280;34927;37.302;-121.982;2023-02-16T04:36:11;101757.0;;;23.41;24.91
48530;BME280;34927;37.302;-121.982;2023-02-16T04:37:17;101760.0;;;23.29;25.08
48530;BME280;34927;37.302;-121.982;2023-02-16T04:38:22;101759.0;;;23.23;25.10
48530;BME280;34927;37.302;-121.982;2023-02-16T04:39:27;101758.0;;;23.20;25.14
48530;BME280;34927;37.302;-121.982;2023-02-16T04:40:32;101756.0;;;23.03;25.36
48530;BME280;34927;37.302;-121.982;2023-02-16T04:41:36;101758.0;;;23.05;25.18
48530;BME280;34927;37.302;-121.982;2023-02-16T04:42:43;101758.0;;;23.16;25.18
48530;BME280;34927;37.302;-121.982;2023-02-16T04:43:47;101758.0;;;23.37;24.99
48530;BME280;34927;37.302;-121.982;2023-02-16T04:44:52;101759.0;;;23.60;24.69
48530;BME280;34927;37.302;-121.982;2023-02-16T04:45:57;101761.0;;;23.81;24.42
48530;BME280;34927;37.302;-121.982;2023-02-16T04:47:01;101762.0;;;24.09;24.15
48530;BME280;34927;37.302;-121.982;2023-02-16T04:48:09;101761.0;;;24.30;23.97
48530;BME280;34927;37.302;-121.982;2023-02-16T04:49:12;101763.0;;;24.39;23.92
48530;BME280;34927;37.302;-121.982;2023-02-16T04:50:16;101764.0;;;24.31;24.09
48530;BME280;34927;37.302;-121.982;2023-02-16T04:51:22;101767.0;;;24.20;24.27
48530;BME280;34927;37.302;-121.982;2023-02-16T04:52:26;101765.0;;;24.00;24.39
48530;BME280;34927;37.302;-121.982;2023-02-16T04:53:31;101766.0;;;23.82;25.06
48530;BME280;34927;37.302;-121.982;2023-02-16T04:54:38;101765.0;;;23.69;25.05
48530;BME280;34927;37.302;-121.982;2023-02-16T04:55:45;101766.0;;;23.58;25.24
48530;BME280;34927;37.302;-121.982;2023-02-16T04:56:52;101768.0;;;23.44;25.47
48530;BME280;34927;37.302;-121.982;2023-02-16T04:57:58;101772.0;;;23.36;25.59
48530;BME280;34927;37.302;-121.982;2023-02-16T04:59:02;101774.0;;;23.12;25.91
48530;BME280;34927;37.302;-121.982;2023-02-16T05:00:10;101780.0;;;23.11;25.93
48530;BME280;34927;37.302;-121.982;2023-02-16T05:01:31;101779.0;;;23.03;25.90
48530;BME280;34927;37.302;-121.982;2023-02-16T05:03:56;101782.0;;;22.96;25.82
48530;BME280;34927;37.302;-121.982;2023-02-16T05:05:02;101783.0;;;23.19;25.79
48530;BME280;34927;37.302;-121.982;2023-02-16T05:06:13;101781.0;;;23.42;25.61
48530;BME280;34927;37.302;-121.982;2023-02-16T05:07:16;101783.0;;;23.69;25.29
48530;BME280;34927;37.302;-121.982;2023-02-16T05:08:23;101784.0;;;23.95;25.02
48530;BME280;34927;37.302;-121.982;2023-02-16T05:09:27;101787.0;;;24.22;24.67
48530;BME280;34927;37.302;-121.982;2023-02-16T05:10:37;101786.0;;;24.35;24.47
48530;BME280;34927;37.302;-121.982;2023-02-16T05:11:42;101784.0;;;24.42;24.33
48530;BME280;34927;37.302;-121.982;2023-02-16T05:12:48;101789.0;;;24.32;24.54
48530;BME280;34927;37.302;-121.982;2023-02-16T05:13:51;101791.0;;;24.13;24.73
48530;BME280;34927;37.302;-121.982;2023-02-16T05:14:57;101791.0;;;23.91;25.04
48530;BME280;34927;37.302;-121.982;2023-02-16T05:16:07;101789.0;;;23.73;25.33
48530;BME280;34927;37.302;-121.982;2023-02-16T05:17:14;101790.0;;;23.43;25.60
48530;BME280;34927;37.302;-121.982;2023-02-16T05:18:21;101792.0;;;23.56;25.34
48530;BME280;34927;37.302;-121.982;2023-02-16T05:19:27;101793.0;;;23.24;25.76
48530;BME280;34927;37.302;-121.982;2023-02-16T05:20:32;101796.0;;;23.09;25.89
48530;BME280;34927;37.302;-121.982;2023-02-16T05:21:37;101797.0;;;22.89;26.06
48530;BME280;34927;37.302;-121.982;2023-02-16T05:22:42;101794.0;;;23.01;25.70
48530;BME280;34927;37.302;-121.982;2023-02-16T05:23:47;101799.0;;;22.82;25.98
48530;BME280;34927;37.302;-121.982;2023-02-16T05:24:58;101795.0;;;22.67;26.19
48530;BME280;34927;37.302;-121.982;2023-02-16T05:26:02;101798.0;;;22.66;26.12
48530;BME280;34927;37.302;-121.982;2023-02-16T05:27:10;101795.0;;;22.90;25.85
48530;BME280;34927;37.302;-121.982;2023-02-16T05:28:17;101797.0;;;23.14;25.72
48530;BME280;34927;37.302;-121.982;2023-02-16T05:29:22;101794.0;;;23.37;25.46
48530;BME280;34927;37.302;-121.982;2023-02-16T05:30:26;101795.0;;;23.69;25.09
48530;BME280;34927;37.302;-121.982;2023-02-16T05:31:32;101796.0;;;23.91;24.78
48530;BME280;34927;37.302;-121.982;2023-02-16T05:32:37;101796.0;;;24.16;24.53
48530;BME280;34927;37.302;-121.982;2023-02-16T05:33:41;101802.0;;;24.32;24.28
48530;BME280;34927;37.302;-121.982;2023-02-16T05:34:47;101803.0;;;24.26;24.28
48530;BME280;34927;37.302;-121.982;2023-02-16T05:35:53;101803.0;;;24.07;24.57
48530;BME280;34927;37.302;-121.982;2023-02-16T05:36:57;101801.0;;;23.87;24.72
48530;BME280;34927;37.302;-121.982;2023-02-16T05:38:01;101802.0;;;23.72;25.03
48530;BME280;34927;37.302;-121.982;2023-02-16T05:39:06;101802.0;;;23.29;25.52
48530;BME280;34927;37.302;-121.982;2023-02-16T05:40:12;101803.0;;;23.13;25.77
48530;BME280;34927;37.302;-121.982;2023-02-16T05:41:17;101808.0;;;22.97;25.91
48530;BME280;34927;37.302;-121.982;2023-02-16T05:42:23;101811.0;;;22.83;26.06
48530;BME280;34927;37.302;-121.982;2023-02-16T05:43:33;101811.0;;;22.73;26.16
48530;BME280;34927;37.302;-121.982;2023-02-16T05:44:38;101812.0;;;22.71;26.10
48530;BME280;34927;37.302;-121.982;2023-02-16T05:45:42;101814.0;;;22.72;26.00
48530;BME280;34927;37.302;-121.982;2023-02-16T05:46:47;101812.0;;;22.61;26.22